sensor_id;sensor_type;location;lat;lon;timestamp;P1;durP1;ratioP1;P2;durP2;ratioP2
6255;SDS011;3161;48.794;9.784;2023-08-30T00:01:41;8.43;;;7.53;;
6255;SDS011;3161;48.794;9.784;2023-08-30T00:04:08;9.00;;;7.97;;
6255;SDS011;3161;48.794;9.784;2023-08-30T00:06:36;8.93;;;7.43;;
6255;SDS011;3161;48.794;9.784;2023-08-30T00:09:03;9.43;;;8.30;;
6255;SDS011;3161;48.794;9.784;2023-08-30T00:11:31;12.47;;;8.40;;
6255;SDS011;3161;48.794;9.784;2023-08-30T00:14:05;8.73;;;7.80;;
6255;SDS011;3161;48.794;9.784;2023-08-30T00:16:33;11.93;;;8.73;;
6255;SDS011;3161;48.794;9.784;2023-08-30T00:19:01;14.43;;;8.80;;
6255;SDS011;3161;48.794;9.784;2023-08-30T00:21:29;9.07;;;8.17;;
6255;SDS011;3161;48.794;9.784;2023-08-30T00:23:57;9.63;;;8.50;;
6255;SDS011;3161;48.794;9.784;2023-08-30T00:26:25;9.70;;;8.73;;
6255;SDS011;3161;48.794;9.784;2023-08-30T00:28:52;10.13;;;9.13;;
6255;SDS011;3161;48.794;9.784;2023-08-30T00:31:20;9.57;;;8.63;;
6255;SDS011;3161;48.794;9.784;2023-08-30T00:33:48;10.60;;;9.53;;
6255;SDS011;3161;48.794;9.784;2023-08-30T00:36:15;13.90;;;9.30;;
6255;SDS011;3161;48.794;9.784;2023-08-30T00:38:44;10.57;;;9.57;;
6255;SDS011;3161;48.794;9.784;2023-08-30T00:41:11;10.00;;;9.00;;
6255;SDS011;3161;48.794;9.784;2023-08-30T00:43:39;10.20;;;9.00;;
6255;SDS011;3161;48.794;9.784;2023-08-30T00:46:06;10.47;;;9.33;;
6255;SDS011;3161;48.794;9.784;2023-08-30T00:48:34;9.97;;;9.07;;
6255;SDS011;3161;48.794;9.784;2023-08-30T00:51:02;11.70;;;9.30;;
6255;SDS011;3161;48.794;9.784;2023-08-30T00:53:29;9.60;;;8.30;;
6255;SDS011;3161;48.794;9.784;2023-08-30T00:55:57;9.53;;;8.63;;
6255;SDS011;3161;48.794;9.784;2023-08-30T00:58:24;10.90;;;9.13;;
6255;SDS011;3161;48.794;9.784;2023-08-30T01:00:52;9.40;;;8.60;;
6255;SDS011;3161;48.794;9.784;2023-08-30T01:03:20;15.10;;;8.83;;
6255;SDS011;3161;48.794;9.784;2023-08-30T01:05:48;9.67;;;8.67;;
6255;SDS011;3161;48.794;9.784;2023-08-30T01:08:16;10.67;;;9.40;;
6255;SDS011;3161;48.794;9.784;2023-08-30T01:10:47;13.80;;;9.20;;
6255;SDS011;3161;48.794;9.784;2023-08-30T01:13:16;12.70;;;8.73;;
6255;SDS011;3161;48.794;9.784;2023-08-30T01:15:47;12.43;;;8.63;;
6255;SDS011;3161;48.794;9.784;2023-08-30T01:18:20;10.87;;;9.00;;
6255;SDS011;3161;48.794;9.784;2023-08-30T01:20:50;10.00;;;9.00;;
6255;SDS011;3161;48.794;9.784;2023-08-30T01:23:24;17.47;;;9.80;;
6255;SDS011;3161;48.794;9.784;2023-08-30T01:25:58;10.10;;;9.20;;
6255;SDS011;3161;48.794;9.784;2023-08-30T01:28:39;18.70;;;9.50;;
6255;SDS011;3161;48.794;9.784;2023-08-30T01:31:08;50.10;;;9.40;;
6255;SDS011;3161;48.794;9.784;2023-08-30T01:33:37;53.70;;;8.60;;
6255;SDS011;3161;48.794;9.784;2023-08-30T01:36:05;53.07;;;8.37;;
6255;SDS011;3161;48.794;9.784;2023-08-30T01:38:34;80.17;;;8.10;;
6255;SDS011;3161;48.794;9.784;2023-08-30T01:41:03;82.07;;;8.23;;
6255;SDS011;3161;48.794;9.784;2023-08-30T01:43:31;73.70;;;7.90;;
6255;SDS011;3161;48.794;9.784;2023-08-30T01:46:01;49.03;;;7.77;;
6255;SDS011;3161;48.794;9.784;2023-08-30T01:48:30;54.00;;;8.57;;
6255;SDS011;3161;48.794;9.784;2023-08-30T01:51:00;28.73;;;8.60;;
6255;SDS011;3161;48.794;9.784;2023-08-30T01:53:28;47.93;;;9.60;;
6255;SDS011;3161;48.794;9.784;2023-08-30T01:55:57;58.63;;;7.77;;
6255;SDS011;3161;48.794;9.784;2023-08-30T01:58:25;74.57;;;9.33;;
6255;SDS011;3161;48.794;9.784;2023-08-30T02:00:52;33.03;;;7.80;;
6255;SDS011;3161;48.794;9.784;2023-08-30T02:03:21;20.30;;;7.90;;
6255;SDS011;3161;48.794;9.784;2023-08-30T02:05:52;8.77;;;7.97;;
6255;SDS011;3161;48.794;9.784;2023-08-30T02:11:22;12.23;;;7.70;;
6255;SDS011;3161;48.794;9.784;2023-08-30T02:13:53;17.70;;;7.30;;
6255;SDS011;3161;48.794;9.784;2023-08-30T02:16:23;12.43;;;7.67;;
6255;SDS011;3161;48.794;9.784;2023-08-30T02:18:53;8.27;;;7.57;;
6255;SDS011;3161;48.794;9.784;2023-08-30T02:21:22;11.83;;;8.13;;
6255;SDS011;3161;48.794;9.784;2023-08-30T02:23:53;9.00;;;8.10;;
6255;SDS011;3161;48.794;9.784;2023-08-30T02:26:20;9.17;;;8.20;;
6255;SDS011;3161;48.794;9.784;2023-08-30T02:28:48;9.30;;;7.57;;
6255;SDS011;3161;48.794;9.784;2023-08-30T02:31:15;12.27;;;8.33;;
6255;SDS011;3161;48.794;9.784;2023-08-30T02:33:43;22.40;;;9.03;;
6255;SDS011;3161;48.794;9.784;2023-08-30T02:36:10;25.57;;;8.00;;
6255;SDS011;3161;48.794;9.784;2023-08-30T02:38:38;54.00;;;8.60;;
6255;SDS011;3161;48.794;9.784;2023-08-30T02:41:05;56.97;;;7.57;;
6255;SDS011;3161;48.794;9.784;2023-08-30T02:43:33;7.97;;;7.17;;
6255;SDS011;3161;48.794;9.784;2023-08-30T02:46:00;22.17;;;6.90;;
6255;SDS011;3161;48.794;9.784;2023-08-30T02:48:30;19.83;;;7.27;;
6255;SDS011;3161;48.794;9.784;2023-08-30T02:50:59;7.63;;;6.83;;
6255;SDS011;3161;48.794;9.784;2023-08-30T02:53:26;14.73;;;7.23;;
6255;SDS011;3161;48.794;9.784;2023-08-30T02:55:54;7.33;;;6.50;;
6255;SDS011;3161;48.794;9.784;2023-08-30T02:58:21;7.10;;;6.50;;
6255;SDS011;3161;48.794;9.784;2023-08-30T03:00:49;6.30;;;5.77;;
6255;SDS011;3161;48.794;9.784;2023-08-30T03:03:17;6.93;;;6.33;;
6255;SDS011;3161;48.794;9.784;2023-08-30T03:05:44;6.97;;;6.37;;
6255;SDS011;3161;48.794;9.784;2023-08-30T03:08:12;7.17;;;6.33;;
6255;SDS011;3161;48.794;9.784;2023-08-30T03:10:39;7.27;;;6.67;;
6255;SDS011;3161;48.794;9.784;2023-08-30T03:13:07;6.67;;;6.17;;
6255;SDS011;3161;48.794;9.784;2023-08-30T03:15:34;11.40;;;6.43;;
6255;SDS011;3161;48.794;9.784;2023-08-30T03:18:02;5.80;;;5.30;;
6255;SDS011;3161;48.794;9.784;2023-08-30T03:20:30;6.83;;;6.13;;
6255;SDS011;3161;48.794;9.784;2023-08-30T03:22:57;6.40;;;5.80;;
6255;SDS011;3161;48.794;9.784;2023-08-30T03:25:28;6.40;;;5.80;;
6255;SDS011;3161;48.794;9.784;2023-08-30T03:27:56;10.90;;;6.17;;
6255;SDS011;3161;48.794;9.784;2023-08-30T03:30:24;6.90;;;6.30;;
6255;SDS011;3161;48.794;9.784;2023-08-30T03:32:51;6.83;;;6.23;;
6255;SDS011;3161;48.794;9.784;2023-08-30T03:35:19;6.87;;;6.27;;
6255;SDS011;3161;48.794;9.784;2023-08-30T03:37:52;7.17;;;6.57;;
6255;SDS011;3161;48.794;9.784;2023-08-30T03:40:20;6.63;;;6.03;;
6255;SDS011;3161;48.794;9.784;2023-08-30T03:42:47;6.83;;;6.23;;
6255;SDS011;3161;48.794;9.784;2023-08-30T03:45:15;6.87;;;6.27;;
6255;SDS011;3161;48.794;9.784;2023-08-30T03:47:43;12.67;;;6.60;;
6255;SDS011;3161;48.794;9.784;2023-08-30T03:50:10;7.87;;;7.03;;
6255;SDS011;3161;48.794;9.784;2023-08-30T03:52:38;7.80;;;7.07;;
6255;SDS011;3161;48.794;9.784;2023-08-30T03:55:05;8.37;;;6.87;;
6255;SDS011;3161;48.794;9.784;2023-08-30T03:57:33;7.57;;;6.97;;
6255;SDS011;3161;48.794;9.784;2023-08-30T04:00:01;7.73;;;6.73;;
6255;SDS011;3161;48.794;9.784;2023-08-30T04:02:30;9.00;;;7.70;;
6255;SDS011;3161;48.794;9.784;2023-08-30T04:04:57;9.60;;;7.30;;
6255;SDS011;3161;48.794;9.784;2023-08-30T04:07:25;8.70;;;7.87;;
6255;SDS011;3161;48.794;9.784;2023-08-30T04:09:52;7.43;;;6.73;;
6255;SDS011;3161;48.794;9.784;2023-08-30T04:12:19;7.23;;;6.63;;
6255;SDS011;3161;48.794;9.784;2023-08-30T04:14:47;7.27;;;6.60;;
6255;SDS011;3161;48.794;9.784;2023-08-30T04:17:14;7.37;;;6.67;;
6255;SDS011;3161;48.794;9.784;2023-08-30T04:19:42;12.10;;;6.97;;
6255;SDS011;3161;48.794;9.784;2023-08-30T04:22:09;7.93;;;7.23;;
6255;SDS011;3161;48.794;9.784;2023-08-30T04:24:37;9.67;;;7.70;;
6255;SDS011;3161;48.794;9.784;2023-08-30T04:27:04;9.17;;;6.97;;
6255;SDS011;3161;48.794;9.784;2023-08-30T04:29:32;10.00;;;7.13;;
6255;SDS011;3161;48.794;9.784;2023-08-30T04:31:59;8.37;;;7.20;;
6255;SDS011;3161;48.794;9.784;2023-08-30T04:34:27;7.70;;;6.77;;
6255;SDS011;3161;48.794;9.784;2023-08-30T04:36:56;8.17;;;7.33;;
6255;SDS011;3161;48.794;9.784;2023-08-30T04:39:24;7.57;;;6.87;;
6255;SDS011;3161;48.794;9.784;2023-08-30T04:41:51;7.20;;;6.60;;
6255;SDS011;3161;48.794;9.784;2023-08-30T04:44:19;8.17;;;7.37;;
6255;SDS011;3161;48.794;9.784;2023-08-30T04:46:48;15.00;;;7.20;;
6255;SDS011;3161;48.794;9.784;2023-08-30T04:49:16;7.90;;;7.20;;
6255;SDS011;3161;48.794;9.784;2023-08-30T04:51:44;7.53;;;6.83;;
6255;SDS011;3161;48.794;9.784;2023-08-30T04:54:12;8.57;;;7.67;;
6255;SDS011;3161;48.794;9.784;2023-08-30T04:56:39;8.30;;;7.47;;
6255;SDS011;3161;48.794;9.784;2023-08-30T04:59:07;9.50;;;8.60;;
6255;SDS011;3161;48.794;9.784;2023-08-30T05:01:34;8.77;;;7.87;;
6255;SDS011;3161;48.794;9.784;2023-08-30T05:04:04;8.63;;;7.83;;
6255;SDS011;3161;48.794;9.784;2023-08-30T05:06:31;10.33;;;8.70;;
6255;SDS011;3161;48.794;9.784;2023-08-30T05:08:59;10.03;;;8.93;;
6255;SDS011;3161;48.794;9.784;2023-08-30T05:11:26;9.30;;;8.47;;
6255;SDS011;3161;48.794;9.784;2023-08-30T05:13:54;9.20;;;8.33;;
6255;SDS011;3161;48.794;9.784;2023-08-30T05:16:25;9.20;;;8.30;;
6255;SDS011;3161;48.794;9.784;2023-08-30T05:18:52;14.17;;;8.97;;
6255;SDS011;3161;48.794;9.784;2023-08-30T05:21:20;9.77;;;8.83;;
6255;SDS011;3161;48.794;9.784;2023-08-30T05:23:48;9.57;;;8.50;;
6255;SDS011;3161;48.794;9.784;2023-08-30T05:26:15;10.97;;;8.60;;
6255;SDS011;3161;48.794;9.784;2023-08-30T05:28:44;9.53;;;8.43;;
6255;SDS011;3161;48.794;9.784;2023-08-30T05:31:12;8.87;;;7.97;;
6255;SDS011;3161;48.794;9.784;2023-08-30T05:33:39;10.10;;;9.03;;
6255;SDS011;3161;48.794;9.784;2023-08-30T05:36:07;9.30;;;8.40;;
6255;SDS011;3161;48.794;9.784;2023-08-30T05:38:35;9.07;;;8.20;;
6255;SDS011;3161;48.794;9.784;2023-08-30T05:41:03;9.13;;;8.33;;
6255;SDS011;3161;48.794;9.784;2023-08-30T05:43:30;10.47;;;8.30;;
6255;SDS011;3161;48.794;9.784;2023-08-30T05:45:58;10.73;;;9.20;;
6255;SDS011;3161;48.794;9.784;2023-08-30T05:48:28;11.13;;;9.10;;
6255;SDS011;3161;48.794;9.784;2023-08-30T05:50:56;8.93;;;8.03;;
6255;SDS011;3161;48.794;9.784;2023-08-30T05:53:24;10.23;;;8.53;;
6255;SDS011;3161;48.794;9.784;2023-08-30T05:55:51;10.23;;;9.07;;
6255;SDS011;3161;48.794;9.784;2023-08-30T05:58:19;9.77;;;8.77;;
6255;SDS011;3161;48.794;9.784;2023-08-30T06:00:46;9.83;;;8.87;;
6255;SDS011;3161;48.794;9.784;2023-08-30T06:03:14;10.40;;;8.63;;
6255;SDS011;3161;48.794;9.784;2023-08-30T06:05:42;13.30;;;7.60;;
6255;SDS011;3161;48.794;9.784;2023-08-30T06:08:09;9.97;;;8.17;;
6255;SDS011;3161;48.794;9.784;2023-08-30T06:10:38;8.73;;;7.93;;
6255;SDS011;3161;48.794;9.784;2023-08-30T06:13:05;9.60;;;8.10;;
6255;SDS011;3161;48.794;9.784;2023-08-30T06:15:34;9.67;;;8.67;;
6255;SDS011;3161;48.794;9.784;2023-08-30T06:18:03;11.33;;;8.07;;
6255;SDS011;3161;48.794;9.784;2023-08-30T06:20:31;9.83;;;7.33;;
6255;SDS011;3161;48.794;9.784;2023-08-30T06:23:02;9.00;;;8.10;;
6255;SDS011;3161;48.794;9.784;2023-08-30T06:25:29;8.83;;;7.93;;
6255;SDS011;3161;48.794;9.784;2023-08-30T06:27:58;9.77;;;8.87;;
6255;SDS011;3161;48.794;9.784;2023-08-30T06:30:28;10.87;;;8.50;;
6255;SDS011;3161;48.794;9.784;2023-08-30T06:32:56;8.77;;;7.87;;
6255;SDS011;3161;48.794;9.784;2023-08-30T06:35:24;11.17;;;9.03;;
6255;SDS011;3161;48.794;9.784;2023-08-30T06:37:51;10.23;;;9.10;;
6255;SDS011;3161;48.794;9.784;2023-08-30T06:40:19;10.27;;;9.27;;
6255;SDS011;3161;48.794;9.784;2023-08-30T06:42:46;9.07;;;8.17;;
6255;SDS011;3161;48.794;9.784;2023-08-30T06:45:14;16.87;;;9.13;;
6255;SDS011;3161;48.794;9.784;2023-08-30T06:47:42;8.87;;;8.03;;
6255;SDS011;3161;48.794;9.784;2023-08-30T06:50:09;9.13;;;8.23;;
6255;SDS011;3161;48.794;9.784;2023-08-30T06:52:37;9.87;;;7.90;;
6255;SDS011;3161;48.794;9.784;2023-08-30T06:55:05;9.80;;;8.80;;
6255;SDS011;3161;48.794;9.784;2023-08-30T06:57:33;7.60;;;6.90;;
6255;SDS011;3161;48.794;9.784;2023-08-30T07:00:00;8.10;;;7.17;;
6255;SDS011;3161;48.794;9.784;2023-08-30T07:02:30;10.10;;;6.80;;
6255;SDS011;3161;48.794;9.784;2023-08-30T07:04:57;8.00;;;7.20;;
6255;SDS011;3161;48.794;9.784;2023-08-30T07:07:24;8.27;;;7.40;;
6255;SDS011;3161;48.794;9.784;2023-08-30T07:09:52;6.77;;;6.03;;
6255;SDS011;3161;48.794;9.784;2023-08-30T07:12:20;6.80;;;6.13;;
6255;SDS011;3161;48.794;9.784;2023-08-30T07:14:47;7.23;;;6.40;;
6255;SDS011;3161;48.794;9.784;2023-08-30T07:17:15;7.07;;;6.47;;
6255;SDS011;3161;48.794;9.784;2023-08-30T07:19:42;8.13;;;7.17;;
6255;SDS011;3161;48.794;9.784;2023-08-30T07:22:10;13.27;;;7.30;;
6255;SDS011;3161;48.794;9.784;2023-08-30T07:24:37;8.47;;;6.73;;
6255;SDS011;3161;48.794;9.784;2023-08-30T07:27:05;7.77;;;6.40;;
6255;SDS011;3161;48.794;9.784;2023-08-30T07:29:34;9.30;;;6.87;;
6255;SDS011;3161;48.794;9.784;2023-08-30T07:32:01;6.90;;;6.30;;
6255;SDS011;3161;48.794;9.784;2023-08-30T07:34:29;6.63;;;5.97;;
6255;SDS011;3161;48.794;9.784;2023-08-30T07:36:57;7.07;;;6.07;;
6255;SDS011;3161;48.794;9.784;2023-08-30T07:39:24;6.77;;;6.17;;
6255;SDS011;3161;48.794;9.784;2023-08-30T07:41:52;6.50;;;5.90;;
6255;SDS011;3161;48.794;9.784;2023-08-30T07:44:19;9.57;;;6.00;;
6255;SDS011;3161;48.794;9.784;2023-08-30T07:46:47;8.20;;;6.57;;
6255;SDS011;3161;48.794;9.784;2023-08-30T07:49:15;7.20;;;6.23;;
6255;SDS011;3161;48.794;9.784;2023-08-30T07:51:42;6.20;;;5.60;;
6255;SDS011;3161;48.794;9.784;2023-08-30T07:54:11;10.07;;;5.90;;
6255;SDS011;3161;48.794;9.784;2023-08-30T07:56:38;8.33;;;5.50;;
6255;SDS011;3161;48.794;9.784;2023-08-30T07:59:06;9.63;;;6.13;;
6255;SDS011;3161;48.794;9.784;2023-08-30T08:01:33;6.20;;;5.60;;
6255;SDS011;3161;48.794;9.784;2023-08-30T08:04:01;6.30;;;5.67;;
6255;SDS011;3161;48.794;9.784;2023-08-30T08:06:28;6.33;;;4.93;;
6255;SDS011;3161;48.794;9.784;2023-08-30T08:08:56;4.33;;;4.03;;
6255;SDS011;3161;48.794;9.784;2023-08-30T08:11:23;4.37;;;4.00;;
6255;SDS011;3161;48.794;9.784;2023-08-30T08:13:52;3.30;;;3.00;;
6255;SDS011;3161;48.794;9.784;2023-08-30T08:16:19;3.80;;;3.37;;
6255;SDS011;3161;48.794;9.784;2023-08-30T08:18:47;3.80;;;3.00;;
6255;SDS011;3161;48.794;9.784;2023-08-30T08:21:15;8.10;;;2.83;;
6255;SDS011;3161;48.794;9.784;2023-08-30T08:23:42;3.47;;;3.17;;
6255;SDS011;3161;48.794;9.784;2023-08-30T08:26:10;3.30;;;3.00;;
6255;SDS011;3161;48.794;9.784;2023-08-30T08:28:37;4.97;;;3.63;;
6255;SDS011;3161;48.794;9.784;2023-08-30T08:31:05;3.67;;;3.10;;
6255;SDS011;3161;48.794;9.784;2023-08-30T08:33:34;6.20;;;3.00;;
6255;SDS011;3161;48.794;9.784;2023-08-30T08:36:01;3.27;;;2.93;;
6255;SDS011;3161;48.794;9.784;2023-08-30T08:38:29;4.70;;;3.00;;
6255;SDS011;3161;48.794;9.784;2023-08-30T08:41:05;5.07;;;2.80;;
6255;SDS011;3161;48.794;9.784;2023-08-30T08:43:33;3.10;;;2.90;;
6255;SDS011;3161;48.794;9.784;2023-08-30T08:46:03;4.20;;;3.03;;
6255;SDS011;3161;48.794;9.784;2023-08-30T08:48:33;3.87;;;3.37;;
6255;SDS011;3161;48.794;9.784;2023-08-30T08:51:02;3.50;;;3.20;;
6255;SDS011;3161;48.794;9.784;2023-08-30T08:53:30;3.40;;;3.10;;
6255;SDS011;3161;48.794;9.784;2023-08-30T08:55:58;8.77;;;3.47;;
6255;SDS011;3161;48.794;9.784;2023-08-30T08:58:28;5.00;;;3.60;;
6255;SDS011;3161;48.794;9.784;2023-08-30T09:00:56;4.17;;;2.90;;
6255;SDS011;3161;48.794;9.784;2023-08-30T09:03:25;4.27;;;3.30;;
6255;SDS011;3161;48.794;9.784;2023-08-30T09:05:53;3.13;;;2.93;;
6255;SDS011;3161;48.794;9.784;2023-08-30T09:08:21;7.63;;;3.10;;
6255;SDS011;3161;48.794;9.784;2023-08-30T09:10:49;3.37;;;3.17;;
6255;SDS011;3161;48.794;9.784;2023-08-30T09:13:18;3.33;;;3.10;;
6255;SDS011;3161;48.794;9.784;2023-08-30T09:15:46;3.53;;;3.20;;
6255;SDS011;3161;48.794;9.784;2023-08-30T09:18:18;3.13;;;2.83;;
6255;SDS011;3161;48.794;9.784;2023-08-30T09:20:45;4.40;;;3.33;;
6255;SDS011;3161;48.794;9.784;2023-08-30T09:23:16;4.13;;;2.60;;
6255;SDS011;3161;48.794;9.784;2023-08-30T09:25:46;4.73;;;2.37;;
6255;SDS011;3161;48.794;9.784;2023-08-30T09:28:14;3.00;;;2.80;;
6255;SDS011;3161;48.794;9.784;2023-08-30T09:30:41;2.90;;;2.70;;
6255;SDS011;3161;48.794;9.784;2023-08-30T09:33:10;4.77;;;2.87;;
6255;SDS011;3161;48.794;9.784;2023-08-30T09:35:44;3.07;;;2.80;;
6255;SDS011;3161;48.794;9.784;2023-08-30T09:38:18;4.93;;;2.60;;
6255;SDS011;3161;48.794;9.784;2023-08-30T09:40:46;3.57;;;2.50;;
6255;SDS011;3161;48.794;9.784;2023-08-30T09:43:13;2.40;;;2.27;;
6255;SDS011;3161;48.794;9.784;2023-08-30T09:45:44;5.23;;;2.47;;
6255;SDS011;3161;48.794;9.784;2023-08-30T09:48:12;2.33;;;2.23;;
6255;SDS011;3161;48.794;9.784;2023-08-30T09:50:40;2.57;;;2.37;;
6255;SDS011;3161;48.794;9.784;2023-08-30T09:53:10;2.37;;;2.00;;
6255;SDS011;3161;48.794;9.784;2023-08-30T09:55:40;4.80;;;2.43;;
6255;SDS011;3161;48.794;9.784;2023-08-30T09:58:09;2.40;;;2.20;;
6255;SDS011;3161;48.794;9.784;2023-08-30T10:00:37;2.47;;;2.37;;
6255;SDS011;3161;48.794;9.784;2023-08-30T10:03:05;3.73;;;2.33;;
6255;SDS011;3161;48.794;9.784;2023-08-30T10:05:33;2.17;;;2.00;;
6255;SDS011;3161;48.794;9.784;2023-08-30T10:08:02;5.20;;;2.03;;
6255;SDS011;3161;48.794;9.784;2023-08-30T10:10:32;2.40;;;1.93;;
6255;SDS011;3161;48.794;9.784;2023-08-30T10:13:01;3.50;;;2.30;;
6255;SDS011;3161;48.794;9.784;2023-08-30T10:15:29;2.57;;;2.37;;
6255;SDS011;3161;48.794;9.784;2023-08-30T10:18:00;1.90;;;1.77;;
6255;SDS011;3161;48.794;9.784;2023-08-30T10:20:28;2.03;;;1.83;;
6255;SDS011;3161;48.794;9.784;2023-08-30T10:22:56;2.17;;;1.83;;
6255;SDS011;3161;48.794;9.784;2023-08-30T10:25:26;2.10;;;1.90;;
6255;SDS011;3161;48.794;9.784;2023-08-30T10:27:56;2.20;;;1.67;;
6255;SDS011;3161;48.794;9.784;2023-08-30T10:30:25;2.30;;;2.10;;
6255;SDS011;3161;48.794;9.784;2023-08-30T10:32:54;2.87;;;1.87;;
6255;SDS011;3161;48.794;9.784;2023-08-30T10:35:21;1.70;;;1.60;;
6255;SDS011;3161;48.794;9.784;2023-08-30T10:37:55;2.27;;;2.13;;
6255;SDS011;3161;48.794;9.784;2023-08-30T10:40:23;3.33;;;1.80;;
6255;SDS011;3161;48.794;9.784;2023-08-30T10:43:03;2.33;;;1.70;;
6255;SDS011;3161;48.794;9.784;2023-08-30T10:45:31;2.87;;;1.63;;
6255;SDS011;3161;48.794;9.784;2023-08-30T10:47:59;1.60;;;1.50;;
6255;SDS011;3161;48.794;9.784;2023-08-30T10:50:34;1.33;;;1.33;;
6255;SDS011;3161;48.794;9.784;2023-08-30T10:52:59;2.57;;;1.60;;
6255;SDS011;3161;48.794;9.784;2023-08-30T10:55:27;2.10;;;1.90;;
6255;SDS011;3161;48.794;9.784;2023-08-30T10:57:59;1.70;;;1.60;;
6255;SDS011;3161;48.794;9.784;2023-08-30T11:00:28;1.80;;;1.70;;
6255;SDS011;3161;48.794;9.784;2023-08-30T11:02:57;1.50;;;1.40;;
6255;SDS011;3161;48.794;9.784;2023-08-30T11:08:11;4.83;;;1.43;;
6255;SDS011;3161;48.794;9.784;2023-08-30T11:10:39;4.60;;;1.40;;
6255;SDS011;3161;48.794;9.784;2023-08-30T11:13:08;2.83;;;1.73;;
6255;SDS011;3161;48.794;9.784;2023-08-30T11:15:36;1.47;;;1.30;;
6255;SDS011;3161;48.794;9.784;2023-08-30T11:18:03;1.17;;;1.10;;
6255;SDS011;3161;48.794;9.784;2023-08-30T11:20:32;3.00;;;1.27;;
6255;SDS011;3161;48.794;9.784;2023-08-30T11:22:59;4.00;;;0.90;;
6255;SDS011;3161;48.794;9.784;2023-08-30T11:25:28;1.17;;;1.07;;
6255;SDS011;3161;48.794;9.784;2023-08-30T11:28:03;1.10;;;1.00;;
6255;SDS011;3161;48.794;9.784;2023-08-30T11:30:31;2.53;;;1.03;;
6255;SDS011;3161;48.794;9.784;2023-08-30T11:32:58;1.43;;;1.00;;
6255;SDS011;3161;48.794;9.784;2023-08-30T11:35:26;1.70;;;1.10;;
6255;SDS011;3161;48.794;9.784;2023-08-30T11:37:53;1.47;;;1.37;;
6255;SDS011;3161;48.794;9.784;2023-08-30T11:40:21;3.37;;;1.00;;
6255;SDS011;3161;48.794;9.784;2023-08-30T11:42:50;2.90;;;1.10;;
6255;SDS011;3161;48.794;9.784;2023-08-30T11:45:18;1.03;;;1.00;;
6255;SDS011;3161;48.794;9.784;2023-08-30T11:47:45;0.90;;;0.90;;
6255;SDS011;3161;48.794;9.784;2023-08-30T11:50:14;0.93;;;0.93;;
6255;SDS011;3161;48.794;9.784;2023-08-30T11:52:41;5.00;;;1.33;;
6255;SDS011;3161;48.794;9.784;2023-08-30T11:55:09;0.80;;;0.80;;
6255;SDS011;3161;48.794;9.784;2023-08-30T11:57:38;2.47;;;1.17;;
6255;SDS011;3161;48.794;9.784;2023-08-30T12:00:12;2.00;;;1.03;;
6255;SDS011;3161;48.794;9.784;2023-08-30T12:02:37;1.70;;;0.97;;
6255;SDS011;3161;48.794;9.784;2023-08-30T12:05:10;1.63;;;1.03;;
6255;SDS011;3161;48.794;9.784;2023-08-30T12:07:38;2.43;;;0.97;;
6255;SDS011;3161;48.794;9.784;2023-08-30T12:10:07;3.70;;;0.93;;
6255;SDS011;3161;48.794;9.784;2023-08-30T12:12:36;0.90;;;0.90;;
6255;SDS011;3161;48.794;9.784;2023-08-30T12:15:10;1.17;;;1.00;;
6255;SDS011;3161;48.794;9.784;2023-08-30T12:17:38;0.77;;;0.77;;
6255;SDS011;3161;48.794;9.784;2023-08-30T12:20:06;2.50;;;1.00;;
6255;SDS011;3161;48.794;9.784;2023-08-30T12:22:40;8.10;;;0.90;;
6255;SDS011;3161;48.794;9.784;2023-08-30T12:25:18;0.90;;;0.90;;
6255;SDS011;3161;48.794;9.784;2023-08-30T12:27:48;1.43;;;0.70;;
6255;SDS011;3161;48.794;9.784;2023-08-30T12:30:16;1.23;;;0.60;;
6255;SDS011;3161;48.794;9.784;2023-08-30T12:32:44;2.43;;;0.70;;
6255;SDS011;3161;48.794;9.784;2023-08-30T12:35:13;0.63;;;0.63;;
6255;SDS011;3161;48.794;9.784;2023-08-30T12:37:41;0.60;;;0.60;;
6255;SDS011;3161;48.794;9.784;2023-08-30T12:40:09;2.20;;;1.07;;
6255;SDS011;3161;48.794;9.784;2023-08-30T12:42:37;1.90;;;1.00;;
6255;SDS011;3161;48.794;9.784;2023-08-30T12:45:05;5.40;;;0.90;;
6255;SDS011;3161;48.794;9.784;2023-08-30T12:47:33;1.42;;;0.80;;
6255;SDS011;3161;48.794;9.784;2023-08-30T12:50:01;1.23;;;0.97;;
6255;SDS011;3161;48.794;9.784;2023-08-30T12:52:28;2.05;;;0.80;;
6255;SDS011;3161;48.794;9.784;2023-08-30T12:54:56;2.13;;;0.87;;
6255;SDS011;3161;48.794;9.784;2023-08-30T12:57:23;2.67;;;0.77;;
6255;SDS011;3161;48.794;9.784;2023-08-30T12:59:52;1.95;;;0.75;;
6255;SDS011;3161;48.794;9.784;2023-08-30T13:02:19;2.47;;;0.70;;
6255;SDS011;3161;48.794;9.784;2023-08-30T13:04:47;0.57;;;0.45;;
6255;SDS011;3161;48.794;9.784;2023-08-30T13:07:14;1.07;;;0.50;;
6255;SDS011;3161;48.794;9.784;2023-08-30T13:09:43;0.70;;;0.70;;
6255;SDS011;3161;48.794;9.784;2023-08-30T13:12:11;0.57;;;0.57;;
6255;SDS011;3161;48.794;9.784;2023-08-30T13:14:38;1.10;;;0.70;;
6255;SDS011;3161;48.794;9.784;2023-08-30T13:17:06;2.35;;;0.78;;
6255;SDS011;3161;48.794;9.784;2023-08-30T13:19:33;0.75;;;0.75;;
6255;SDS011;3161;48.794;9.784;2023-08-30T13:22:01;0.57;;;0.57;;
6255;SDS011;3161;48.794;9.784;2023-08-30T13:24:28;1.20;;;0.93;;
6255;SDS011;3161;48.794;9.784;2023-08-30T13:26:58;1.27;;;1.05;;
6255;SDS011;3161;48.794;9.784;2023-08-30T13:29:25;1.30;;;0.80;;
6255;SDS011;3161;48.794;9.784;2023-08-30T13:31:52;1.82;;;1.02;;
6255;SDS011;3161;48.794;9.784;2023-08-30T13:34:20;0.72;;;0.72;;
6255;SDS011;3161;48.794;9.784;2023-08-30T13:36:47;1.45;;;0.85;;
6255;SDS011;3161;48.794;9.784;2023-08-30T13:39:15;0.80;;;0.80;;
6255;SDS011;3161;48.794;9.784;2023-08-30T13:41:44;1.17;;;1.00;;
6255;SDS011;3161;48.794;9.784;2023-08-30T13:44:12;1.00;;;0.90;;
6255;SDS011;3161;48.794;9.784;2023-08-30T13:46:40;10.55;;;1.02;;
6255;SDS011;3161;48.794;9.784;2023-08-30T13:49:08;3.60;;;0.93;;
6255;SDS011;3161;48.794;9.784;2023-08-30T13:51:36;0.73;;;0.70;;
6255;SDS011;3161;48.794;9.784;2023-08-30T13:54:04;1.50;;;0.87;;
6255;SDS011;3161;48.794;9.784;2023-08-30T13:56:31;1.13;;;0.90;;
6255;SDS011;3161;48.794;9.784;2023-08-30T13:58:59;3.03;;;1.10;;
6255;SDS011;3161;48.794;9.784;2023-08-30T14:01:26;1.53;;;1.03;;
6255;SDS011;3161;48.794;9.784;2023-08-30T14:03:54;3.87;;;0.90;;
6255;SDS011;3161;48.794;9.784;2023-08-30T14:06:21;6.03;;;0.93;;
6255;SDS011;3161;48.794;9.784;2023-08-30T14:08:49;0.93;;;0.90;;
6255;SDS011;3161;48.794;9.784;2023-08-30T14:11:16;3.23;;;1.00;;
6255;SDS011;3161;48.794;9.784;2023-08-30T14:13:44;1.90;;;1.30;;
6255;SDS011;3161;48.794;9.784;2023-08-30T14:16:11;3.77;;;0.87;;
6255;SDS011;3161;48.794;9.784;2023-08-30T14:18:39;1.70;;;1.00;;
6255;SDS011;3161;48.794;9.784;2023-08-30T14:21:06;2.57;;;1.13;;
6255;SDS011;3161;48.794;9.784;2023-08-30T14:23:34;0.90;;;0.90;;
6255;SDS011;3161;48.794;9.784;2023-08-30T14:26:05;2.17;;;1.20;;
6255;SDS011;3161;48.794;9.784;2023-08-30T14:28:38;6.20;;;1.47;;
6255;SDS011;3161;48.794;9.784;2023-08-30T14:31:07;2.70;;;1.00;;
6255;SDS011;3161;48.794;9.784;2023-08-30T14:33:36;1.60;;;1.07;;
6255;SDS011;3161;48.794;9.784;2023-08-30T14:36:10;1.10;;;1.00;;
6255;SDS011;3161;48.794;9.784;2023-08-30T14:38:38;6.57;;;4.67;;
6255;SDS011;3161;48.794;9.784;2023-08-30T14:41:07;3.67;;;3.17;;
6255;SDS011;3161;48.794;9.784;2023-08-30T14:43:34;1.27;;;0.90;;
6255;SDS011;3161;48.794;9.784;2023-08-30T14:46:03;2.60;;;1.73;;
6255;SDS011;3161;48.794;9.784;2023-08-30T14:48:34;2.60;;;1.30;;
6255;SDS011;3161;48.794;9.784;2023-08-30T14:51:04;1.17;;;0.80;;
6255;SDS011;3161;48.794;9.784;2023-08-30T14:53:33;1.37;;;1.00;;
6255;SDS011;3161;48.794;9.784;2023-08-30T14:56:01;2.57;;;1.40;;
6255;SDS011;3161;48.794;9.784;2023-08-30T14:58:34;2.53;;;1.20;;
6255;SDS011;3161;48.794;9.784;2023-08-30T15:01:02;3.57;;;1.17;;
6255;SDS011;3161;48.794;9.784;2023-08-30T15:03:29;1.30;;;1.10;;
6255;SDS011;3161;48.794;9.784;2023-08-30T15:05:57;1.40;;;1.30;;
6255;SDS011;3161;48.794;9.784;2023-08-30T15:08:25;2.77;;;1.40;;
6255;SDS011;3161;48.794;9.784;2023-08-30T15:10:53;1.20;;;1.10;;
6255;SDS011;3161;48.794;9.784;2023-08-30T15:13:21;1.33;;;1.13;;
6255;SDS011;3161;48.794;9.784;2023-08-30T15:15:48;3.70;;;1.20;;
6255;SDS011;3161;48.794;9.784;2023-08-30T15:18:16;6.33;;;2.10;;
6255;SDS011;3161;48.794;9.784;2023-08-30T15:20:43;5.97;;;1.10;;
6255;SDS011;3161;48.794;9.784;2023-08-30T15:23:13;1.03;;;0.93;;
6255;SDS011;3161;48.794;9.784;2023-08-30T15:25:47;1.43;;;1.00;;